sensor_id;sensor_type;location;lat;lon;timestamp;P1;durP1;ratioP1;P2;durP2;ratioP2
14400;SDS011;7285;50.894;5.462;2022-10-16T00:00:46;0.47;;;0.47;;
14400;SDS011;7285;50.894;5.462;2022-10-16T00:03:13;0.47;;;0.47;;
14400;SDS011;7285;50.894;5.462;2022-10-16T00:05:41;0.40;;;0.40;;
14400;SDS011;7285;50.894;5.462;2022-10-16T00:08:10;0.40;;;0.40;;
14400;SDS011;7285;50.894;5.462;2022-10-16T00:10:38;0.30;;;0.30;;
14400;SDS011;7285;50.894;5.462;2022-10-16T00:13:07;0.40;;;0.40;;
14400;SDS011;7285;50.894;5.462;2022-10-16T00:15:34;0.40;;;0.40;;
14400;SDS011;7285;50.894;5.462;2022-10-16T00:18:02;0.40;;;0.40;;
14400;SDS011;7285;50.894;5.462;2022-10-16T00:20:29;0.40;;;0.40;;
14400;SDS011;7285;50.894;5.462;2022-10-16T00:22:59;0.40;;;0.40;;
14400;SDS011;7285;50.894;5.462;2022-10-16T00:25:26;0.40;;;0.40;;
14400;SDS011;7285;50.894;5.462;2022-10-16T00:27:53;0.40;;;0.40;;
14400;SDS011;7285;50.894;5.462;2022-10-16T00:30:21;0.40;;;0.40;;
14400;SDS011;7285;50.894;5.462;2022-10-16T00:32:48;0.40;;;0.40;;
14400;SDS011;7285;50.894;5.462;2022-10-16T00:35:15;0.40;;;0.40;;
14400;SDS011;7285;50.894;5.462;2022-10-16T00:37:42;0.40;;;0.40;;
14400;SDS011;7285;50.894;5.462;2022-10-16T00:40:10;0.60;;;0.60;;
14400;SDS011;7285;50.894;5.462;2022-10-16T00:42:37;0.40;;;0.40;;
14400;SDS011;7285;50.894;5.462;2022-10-16T00:45:04;0.40;;;0.40;;
14400;SDS011;7285;50.894;5.462;2022-10-16T00:47:34;0.50;;;0.50;;
14400;SDS011;7285;50.894;5.462;2022-10-16T00:50:07;0.40;;;0.40;;
14400;SDS011;7285;50.894;5.462;2022-10-16T00:52:36;0.40;;;0.40;;
14400;SDS011;7285;50.894;5.462;2022-10-16T00:55:07;0.50;;;0.50;;
14400;SDS011;7285;50.894;5.462;2022-10-16T00:57:35;0.40;;;0.40;;
14400;SDS011;7285;50.894;5.462;2022-10-16T01:00:03;0.40;;;0.40;;
14400;SDS011;7285;50.894;5.462;2022-10-16T01:02:34;0.40;;;0.40;;
14400;SDS011;7285;50.894;5.462;2022-10-16T01:05:01;0.50;;;0.50;;
14400;SDS011;7285;50.894;5.462;2022-10-16T01:07:31;0.40;;;0.40;;
14400;SDS011;7285;50.894;5.462;2022-10-16T01:10:07;0.70;;;0.70;;
14400;SDS011;7285;50.894;5.462;2022-10-16T01:12:42;0.40;;;0.40;;
14400;SDS011;7285;50.894;5.462;2022-10-16T01:15:17;0.50;;;0.50;;
14400;SDS011;7285;50.894;5.462;2022-10-16T01:17:51;0.50;;;0.50;;
14400;SDS011;7285;50.894;5.462;2022-10-16T01:20:25;0.40;;;0.40;;
14400;SDS011;7285;50.894;5.462;2022-10-16T01:23:05;0.50;;;0.50;;
14400;SDS011;7285;50.894;5.462;2022-10-16T01:25:49;0.40;;;0.40;;
14400;SDS011;7285;50.894;5.462;2022-10-16T01:28:32;0.40;;;0.40;;
14400;SDS011;7285;50.894;5.462;2022-10-16T01:31:04;0.40;;;0.40;;
14400;SDS011;7285;50.894;5.462;2022-10-16T01:33:34;0.50;;;0.50;;
14400;SDS011;7285;50.894;5.462;2022-10-16T01:36:06;0.40;;;0.40;;
14400;SDS011;7285;50.894;5.462;2022-10-16T01:38:36;0.47;;;0.47;;
14400;SDS011;7285;50.894;5.462;2022-10-16T01:41:06;0.40;;;0.40;;
14400;SDS011;7285;50.894;5.462;2022-10-16T01:43:39;0.83;;;0.83;;
14400;SDS011;7285;50.894;5.462;2022-10-16T01:46:09;0.50;;;0.50;;
14400;SDS011;7285;50.894;5.462;2022-10-16T01:48:38;0.60;;;0.60;;
14400;SDS011;7285;50.894;5.462;2022-10-16T01:51:07;0.50;;;0.50;;
14400;SDS011;7285;50.894;5.462;2022-10-16T01:53:37;0.50;;;0.50;;
14400;SDS011;7285;50.894;5.462;2022-10-16T01:56:07;0.43;;;0.43;;
14400;SDS011;7285;50.894;5.462;2022-10-16T01:58:40;0.40;;;0.40;;
14400;SDS011;7285;50.894;5.462;2022-10-16T02:01:11;0.50;;;0.50;;
14400;SDS011;7285;50.894;5.462;2022-10-16T02:03:40;0.50;;;0.50;;
14400;SDS011;7285;50.894;5.462;2022-10-16T02:06:09;0.43;;;0.43;;
14400;SDS011;7285;50.894;5.462;2022-10-16T02:08:37;0.50;;;0.50;;
14400;SDS011;7285;50.894;5.462;2022-10-16T02:11:09;0.50;;;0.50;;
14400;SDS011;7285;50.894;5.462;2022-10-16T02:13:37;0.50;;;0.50;;
14400;SDS011;7285;50.894;5.462;2022-10-16T02:16:10;0.40;;;0.40;;
14400;SDS011;7285;50.894;5.462;2022-10-16T02:18:39;0.50;;;0.50;;
14400;SDS011;7285;50.894;5.462;2022-10-16T02:21:08;0.43;;;0.43;;
14400;SDS011;7285;50.894;5.462;2022-10-16T02:23:42;0.40;;;0.40;;
14400;SDS011;7285;50.894;5.462;2022-10-16T02:26:16;0.50;;;0.50;;
14400;SDS011;7285;50.894;5.462;2022-10-16T02:28:51;0.70;;;0.70;;
14400;SDS011;7285;50.894;5.462;2022-10-16T02:31:23;0.50;;;0.50;;
14400;SDS011;7285;50.894;5.462;2022-10-16T02:33:53;0.40;;;0.40;;
14400;SDS011;7285;50.894;5.462;2022-10-16T02:36:23;0.50;;;0.50;;
14400;SDS011;7285;50.894;5.462;2022-10-16T02:38:51;0.50;;;0.50;;
14400;SDS011;7285;50.894;5.462;2022-10-16T02:41:20;0.40;;;0.40;;
14400;SDS011;7285;50.894;5.462;2022-10-16T02:43:48;0.50;;;0.50;;
14400;SDS011;7285;50.894;5.462;2022-10-16T02:46:16;0.40;;;0.40;;
14400;SDS011;7285;50.894;5.462;2022-10-16T02:48:44;0.50;;;0.50;;
14400;SDS011;7285;50.894;5.462;2022-10-16T02:51:11;0.60;;;0.60;;
14400;SDS011;7285;50.894;5.462;2022-10-16T02:53:38;0.40;;;0.40;;
14400;SDS011;7285;50.894;5.462;2022-10-16T02:56:05;0.40;;;0.40;;
14400;SDS011;7285;50.894;5.462;2022-10-16T02:58:32;0.50;;;0.50;;
14400;SDS011;7285;50.894;5.462;2022-10-16T03:00:59;0.50;;;0.50;;
14400;SDS011;7285;50.894;5.462;2022-10-16T03:03:28;0.70;;;0.70;;
14400;SDS011;7285;50.894;5.462;2022-10-16T03:05:55;0.40;;;0.40;;
14400;SDS011;7285;50.894;5.462;2022-10-16T03:08:22;0.40;;;0.40;;
14400;SDS011;7285;50.894;5.462;2022-10-16T03:10:50;0.40;;;0.40;;
14400;SDS011;7285;50.894;5.462;2022-10-16T03:13:18;0.43;;;0.43;;
14400;SDS011;7285;50.894;5.462;2022-10-16T03:15:46;0.50;;;0.50;;
14400;SDS011;7285;50.894;5.462;2022-10-16T03:18:14;0.50;;;0.50;;
14400;SDS011;7285;50.894;5.462;2022-10-16T03:20:43;0.40;;;0.40;;
14400;SDS011;7285;50.894;5.462;2022-10-16T03:23:10;0.40;;;0.40;;
14400;SDS011;7285;50.894;5.462;2022-10-16T03:25:37;0.40;;;0.40;;
14400;SDS011;7285;50.894;5.462;2022-10-16T03:28:04;0.50;;;0.50;;
14400;SDS011;7285;50.894;5.462;2022-10-16T03:30:31;0.50;;;0.50;;
14400;SDS011;7285;50.894;5.462;2022-10-16T03:32:58;0.43;;;0.43;;
14400;SDS011;7285;50.894;5.462;2022-10-16T03:35:25;0.50;;;0.50;;
14400;SDS011;7285;50.894;5.462;2022-10-16T03:37:53;0.50;;;0.50;;
14400;SDS011;7285;50.894;5.462;2022-10-16T03:40:21;0.43;;;0.43;;
14400;SDS011;7285;50.894;5.462;2022-10-16T03:42:48;0.40;;;0.40;;
14400;SDS011;7285;50.894;5.462;2022-10-16T03:45:15;0.50;;;0.50;;
14400;SDS011;7285;50.894;5.462;2022-10-16T03:47:42;0.40;;;0.40;;
14400;SDS011;7285;50.894;5.462;2022-10-16T03:50:09;0.40;;;0.40;;
14400;SDS011;7285;50.894;5.462;2022-10-16T03:52:36;0.40;;;0.40;;
14400;SDS011;7285;50.894;5.462;2022-10-16T03:55:05;0.40;;;0.40;;
14400;SDS011;7285;50.894;5.462;2022-10-16T03:57:32;0.43;;;0.43;;
14400;SDS011;7285;50.894;5.462;2022-10-16T03:59:59;0.50;;;0.50;;
14400;SDS011;7285;50.894;5.462;2022-10-16T04:02:26;0.50;;;0.50;;
14400;SDS011;7285;50.894;5.462;2022-10-16T04:04:53;0.50;;;0.50;;
14400;SDS011;7285;50.894;5.462;2022-10-16T04:07:20;0.50;;;0.50;;
14400;SDS011;7285;50.894;5.462;2022-10-16T04:09:47;0.50;;;0.50;;
14400;SDS011;7285;50.894;5.462;2022-10-16T04:12:15;0.50;;;0.50;;
14400;SDS011;7285;50.894;5.462;2022-10-16T04:14:42;0.50;;;0.50;;
14400;SDS011;7285;50.894;5.462;2022-10-16T04:17:09;0.50;;;0.50;;
14400;SDS011;7285;50.894;5.462;2022-10-16T04:19:36;0.50;;;0.50;;
14400;SDS011;7285;50.894;5.462;2022-10-16T04:22:03;0.50;;;0.50;;
14400;SDS011;7285;50.894;5.462;2022-10-16T04:24:30;0.50;;;0.50;;
14400;SDS011;7285;50.894;5.462;2022-10-16T04:26:57;0.50;;;0.50;;
14400;SDS011;7285;50.894;5.462;2022-10-16T04:29:25;0.70;;;0.70;;
14400;SDS011;7285;50.894;5.462;2022-10-16T04:31:52;0.90;;;0.90;;
14400;SDS011;7285;50.894;5.462;2022-10-16T04:34:19;0.50;;;0.50;;
14400;SDS011;7285;50.894;5.462;2022-10-16T04:36:46;0.50;;;0.50;;
14400;SDS011;7285;50.894;5.462;2022-10-16T04:39:14;0.40;;;0.40;;
14400;SDS011;7285;50.894;5.462;2022-10-16T04:41:41;0.50;;;0.50;;
14400;SDS011;7285;50.894;5.462;2022-10-16T04:44:08;0.40;;;0.40;;
14400;SDS011;7285;50.894;5.462;2022-10-16T04:46:37;0.50;;;0.50;;
14400;SDS011;7285;50.894;5.462;2022-10-16T04:49:04;0.50;;;0.50;;
14400;SDS011;7285;50.894;5.462;2022-10-16T04:51:31;0.50;;;0.50;;
14400;SDS011;7285;50.894;5.462;2022-10-16T04:53:58;0.60;;;0.60;;
14400;SDS011;7285;50.894;5.462;2022-10-16T04:56:25;0.50;;;0.50;;
14400;SDS011;7285;50.894;5.462;2022-10-16T04:58:52;0.50;;;0.50;;
14400;SDS011;7285;50.894;5.462;2022-10-16T05:01:19;0.50;;;0.50;;
14400;SDS011;7285;50.894;5.462;2022-10-16T05:03:47;0.50;;;0.50;;
14400;SDS011;7285;50.894;5.462;2022-10-16T05:06:14;0.40;;;0.40;;
14400;SDS011;7285;50.894;5.462;2022-10-16T05:08:41;0.60;;;0.60;;
14400;SDS011;7285;50.894;5.462;2022-10-16T05:11:08;0.50;;;0.50;;
14400;SDS011;7285;50.894;5.462;2022-10-16T05:13:35;0.43;;;0.43;;
14400;SDS011;7285;50.894;5.462;2022-10-16T05:16:02;0.70;;;0.70;;
14400;SDS011;7285;50.894;5.462;2022-10-16T05:18:29;0.50;;;0.50;;
14400;SDS011;7285;50.894;5.462;2022-10-16T05:20:57;0.60;;;0.60;;
14400;SDS011;7285;50.894;5.462;2022-10-16T05:23:24;0.67;;;0.67;;
14400;SDS011;7285;50.894;5.462;2022-10-16T05:25:54;0.60;;;0.60;;
14400;SDS011;7285;50.894;5.462;2022-10-16T05:28:24;0.47;;;0.47;;
14400;SDS011;7285;50.894;5.462;2022-10-16T05:30:52;0.43;;;0.43;;
14400;SDS011;7285;50.894;5.462;2022-10-16T05:33:21;0.40;;;0.40;;
14400;SDS011;7285;50.894;5.462;2022-10-16T05:35:49;0.60;;;0.60;;
14400;SDS011;7285;50.894;5.462;2022-10-16T05:38:18;0.50;;;0.50;;
14400;SDS011;7285;50.894;5.462;2022-10-16T05:40:50;0.40;;;0.40;;
14400;SDS011;7285;50.894;5.462;2022-10-16T05:43:17;0.40;;;0.40;;
14400;SDS011;7285;50.894;5.462;2022-10-16T05:45:44;0.50;;;0.50;;
14400;SDS011;7285;50.894;5.462;2022-10-16T05:48:19;0.40;;;0.40;;
14400;SDS011;7285;50.894;5.462;2022-10-16T05:50:46;0.50;;;0.50;;
14400;SDS011;7285;50.894;5.462;2022-10-16T05:53:13;0.50;;;0.50;;
14400;SDS011;7285;50.894;5.462;2022-10-16T05:55:41;0.40;;;0.40;;
14400;SDS011;7285;50.894;5.462;2022-10-16T05:58:08;0.50;;;0.50;;
14400;SDS011;7285;50.894;5.462;2022-10-16T06:00:35;0.40;;;0.40;;
14400;SDS011;7285;50.894;5.462;2022-10-16T06:03:02;0.50;;;0.50;;
14400;SDS011;7285;50.894;5.462;2022-10-16T06:05:30;0.50;;;0.50;;
14400;SDS011;7285;50.894;5.462;2022-10-16T06:07:56;0.60;;;0.60;;
14400;SDS011;7285;50.894;5.462;2022-10-16T06:10:23;0.50;;;0.50;;
14400;SDS011;7285;50.894;5.462;2022-10-16T06:12:52;0.40;;;0.40;;
14400;SDS011;7285;50.894;5.462;2022-10-16T06:15:19;0.70;;;0.70;;
14400;SDS011;7285;50.894;5.462;2022-10-16T06:17:46;0.50;;;0.50;;
14400;SDS011;7285;50.894;5.462;2022-10-16T06:20:12;0.80;;;0.80;;
14400;SDS011;7285;50.894;5.462;2022-10-16T06:22:39;0.50;;;0.50;;
14400;SDS011;7285;50.894;5.462;2022-10-16T06:25:06;0.40;;;0.40;;
14400;SDS011;7285;50.894;5.462;2022-10-16T06:27:34;0.50;;;0.50;;
14400;SDS011;7285;50.894;5.462;2022-10-16T06:30:02;0.40;;;0.40;;
14400;SDS011;7285;50.894;5.462;2022-10-16T06:32:30;0.40;;;0.40;;
14400;SDS011;7285;50.894;5.462;2022-10-16T06:34:57;0.50;;;0.50;;
14400;SDS011;7285;50.894;5.462;2022-10-16T06:37:23;0.40;;;0.40;;
14400;SDS011;7285;50.894;5.462;2022-10-16T06:39:51;0.50;;;0.50;;
14400;SDS011;7285;50.894;5.462;2022-10-16T06:42:18;0.40;;;0.40;;
14400;SDS011;7285;50.894;5.462;2022-10-16T06:44:45;0.60;;;0.60;;
14400;SDS011;7285;50.894;5.462;2022-10-16T06:47:14;0.77;;;0.77;;
14400;SDS011;7285;50.894;5.462;2022-10-16T06:49:40;0.50;;;0.50;;
14400;SDS011;7285;50.894;5.462;2022-10-16T06:52:07;0.50;;;0.50;;
14400;SDS011;7285;50.894;5.462;2022-10-16T06:54:34;0.50;;;0.50;;
14400;SDS011;7285;50.894;5.462;2022-10-16T06:57:01;0.60;;;0.60;;
14400;SDS011;7285;50.894;5.462;2022-10-16T06:59:28;0.67;;;0.67;;
14400;SDS011;7285;50.894;5.462;2022-10-16T07:01:55;0.53;;;0.53;;
14400;SDS011;7285;50.894;5.462;2022-10-16T07:04:23;0.40;;;0.40;;
14400;SDS011;7285;50.894;5.462;2022-10-16T07:06:50;0.70;;;0.70;;
14400;SDS011;7285;50.894;5.462;2022-10-16T07:09:17;0.50;;;0.50;;
14400;SDS011;7285;50.894;5.462;2022-10-16T07:11:44;0.43;;;0.43;;
14400;SDS011;7285;50.894;5.462;2022-10-16T07:14:12;0.50;;;0.50;;
14400;SDS011;7285;50.894;5.462;2022-10-16T07:16:43;0.60;;;0.60;;
14400;SDS011;7285;50.894;5.462;2022-10-16T07:19:10;0.50;;;0.50;;
14400;SDS011;7285;50.894;5.462;2022-10-16T07:21:41;0.50;;;0.50;;
14400;SDS011;7285;50.894;5.462;2022-10-16T07:24:10;0.50;;;0.50;;
14400;SDS011;7285;50.894;5.462;2022-10-16T07:26:40;0.60;;;0.60;;
14400;SDS011;7285;50.894;5.462;2022-10-16T07:29:11;0.50;;;0.50;;
14400;SDS011;7285;50.894;5.462;2022-10-16T07:31:40;0.60;;;0.60;;
14400;SDS011;7285;50.894;5.462;2022-10-16T07:34:10;0.40;;;0.40;;
14400;SDS011;7285;50.894;5.462;2022-10-16T07:36:38;0.30;;;0.30;;
14400;SDS011;7285;50.894;5.462;2022-10-16T07:39:07;0.40;;;0.40;;
14400;SDS011;7285;50.894;5.462;2022-10-16T07:41:34;0.40;;;0.40;;
14400;SDS011;7285;50.894;5.462;2022-10-16T07:44:02;0.40;;;0.40;;
14400;SDS011;7285;50.894;5.462;2022-10-16T07:46:30;0.50;;;0.50;;
14400;SDS011;7285;50.894;5.462;2022-10-16T07:48:58;0.60;;;0.60;;
14400;SDS011;7285;50.894;5.462;2022-10-16T07:51:26;0.40;;;0.40;;
14400;SDS011;7285;50.894;5.462;2022-10-16T07:53:54;0.40;;;0.40;;
14400;SDS011;7285;50.894;5.462;2022-10-16T07:56:21;0.70;;;0.70;;
14400;SDS011;7285;50.894;5.462;2022-10-16T07:58:49;0.50;;;0.50;;
14400;SDS011;7285;50.894;5.462;2022-10-16T08:01:20;0.30;;;0.30;;
14400;SDS011;7285;50.894;5.462;2022-10-16T08:03:53;0.53;;;0.53;;
14400;SDS011;7285;50.894;5.462;2022-10-16T08:06:49;0.77;;;0.77;;
14400;SDS011;7285;50.894;5.462;2022-10-16T08:09:41;0.40;;;0.40;;
14400;SDS011;7285;50.894;5.462;2022-10-16T08:21:20;0.30;;;0.30;;
14400;SDS011;7285;50.894;5.462;2022-10-16T08:24:00;0.30;;;0.30;;
14400;SDS011;7285;50.894;5.462;2022-10-16T08:26:32;0.30;;;0.30;;
14400;SDS011;7285;50.894;5.462;2022-10-16T08:28:59;0.30;;;0.30;;
14400;SDS011;7285;50.894;5.462;2022-10-16T08:31:27;0.40;;;0.40;;
14400;SDS011;7285;50.894;5.462;2022-10-16T08:33:57;0.30;;;0.30;;
14400;SDS011;7285;50.894;5.462;2022-10-16T08:36:24;0.30;;;0.30;;
14400;SDS011;7285;50.894;5.462;2022-10-16T08:38:52;0.30;;;0.30;;
14400;SDS011;7285;50.894;5.462;2022-10-16T08:50:37;0.30;;;0.30;;
14400;SDS011;7285;50.894;5.462;2022-10-16T08:53:06;0.30;;;0.30;;
14400;SDS011;7285;50.894;5.462;2022-10-16T09:01:55;0.20;;;0.20;;
14400;SDS011;7285;50.894;5.462;2022-10-16T09:10:20;0.30;;;0.30;;
14400;SDS011;7285;50.894;5.462;2022-10-16T09:13:17;0.30;;;0.30;;
14400;SDS011;7285;50.894;5.462;2022-10-16T09:16:17;0.27;;;0.27;;
14400;SDS011;7285;50.894;5.462;2022-10-16T09:19:20;0.30;;;0.30;;
14400;SDS011;7285;50.894;5.462;2022-10-16T09:22:00;0.30;;;0.30;;
14400;SDS011;7285;50.894;5.462;2022-10-16T09:24:38;0.30;;;0.30;;
14400;SDS011;7285;50.894;5.462;2022-10-16T09:27:06;0.30;;;0.30;;
14400;SDS011;7285;50.894;5.462;2022-10-16T09:29:46;0.40;;;0.40;;
14400;SDS011;7285;50.894;5.462;2022-10-16T09:32:15;0.30;;;0.30;;
14400;SDS011;7285;50.894;5.462;2022-10-16T09:34:54;0.30;;;0.30;;
14400;SDS011;7285;50.894;5.462;2022-10-16T09:37:24;0.30;;;0.30;;
14400;SDS011;7285;50.894;5.462;2022-10-16T09:40:00;0.30;;;0.30;;
14400;SDS011;7285;50.894;5.462;2022-10-16T09:42:34;0.40;;;0.40;;
14400;SDS011;7285;50.894;5.462;2022-10-16T09:45:22;0.20;;;0.20;;
14400;SDS011;7285;50.894;5.462;2022-10-16T09:48:01;0.30;;;0.30;;
14400;SDS011;7285;50.894;5.462;2022-10-16T09:50:36;0.30;;;0.30;;
14400;SDS011;7285;50.894;5.462;2022-10-16T09:53:04;0.30;;;0.30;;
14400;SDS011;7285;50.894;5.462;2022-10-16T09:55:33;0.30;;;0.30;;
14400;SDS011;7285;50.894;5.462;2022-10-16T09:58:00;0.20;;;0.20;;
14400;SDS011;7285;50.894;5.462;2022-10-16T10:00:27;0.30;;;0.30;;
14400;SDS011;7285;50.894;5.462;2022-10-16T10:02:55;0.20;;;0.20;;
14400;SDS011;7285;50.894;5.462;2022-10-16T10:08:21;0.30;;;0.30;;
14400;SDS011;7285;50.894;5.462;2022-10-16T10:11:07;0.30;;;0.30;;
14400;SDS011;7285;50.894;5.462;2022-10-16T10:23:19;0.20;;;0.20;;
14400;SDS011;7285;50.894;5.462;2022-10-16T10:25:49;0.20;;;0.20;;
14400;SDS011;7285;50.894;5.462;2022-10-16T10:28:24;0.20;;;0.20;;
14400;SDS011;7285;50.894;5.462;2022-10-16T10:31:06;0.20;;;0.20;;
14400;SDS011;7285;50.894;5.462;2022-10-16T10:33:42;0.20;;;0.20;;
14400;SDS011;7285;50.894;5.462;2022-10-16T10:36:25;0.20;;;0.20;;
14400;SDS011;7285;50.894;5.462;2022-10-16T10:38:57;0.20;;;0.20;;
14400;SDS011;7285;50.894;5.462;2022-10-16T10:44:30;0.10;;;0.10;;
14400;SDS011;7285;50.894;5.462;2022-10-16T10:47:10;0.20;;;0.20;;
14400;SDS011;7285;50.894;5.462;2022-10-16T10:49:52;0.20;;;0.20;;
14400;SDS011;7285;50.894;5.462;2022-10-16T10:52:31;0.20;;;0.20;;
14400;SDS011;7285;50.894;5.462;2022-10-16T10:55:14;0.20;;;0.20;;
14400;SDS011;7285;50.894;5.462;2022-10-16T10:57:51;0.20;;;0.20;;
14400;SDS011;7285;50.894;5.462;2022-10-16T11:00:36;0.20;;;0.20;;
14400;SDS011;7285;50.894;5.462;2022-10-16T11:03:13;0.30;;;0.30;;
14400;SDS011;7285;50.894;5.462;2022-10-16T11:05:58;0.27;;;0.27;;
14400;SDS011;7285;50.894;5.462;2022-10-16T11:08:29;0.20;;;0.20;;
14400;SDS011;7285;50.894;5.462;2022-10-16T11:11:01;0.20;;;0.20;;
14400;SDS011;7285;50.894;5.462;2022-10-16T11:13:33;0.17;;;0.17;;
14400;SDS011;7285;50.894;5.462;2022-10-16T11:16:10;0.20;;;0.20;;
14400;SDS011;7285;50.894;5.462;2022-10-16T11:18:44;0.20;;;0.20;;
14400;SDS011;7285;50.894;5.462;2022-10-16T11:21:16;0.20;;;0.20;;
14400;SDS011;7285;50.894;5.462;2022-10-16T11:23:48;0.20;;;0.20;;
14400;SDS011;7285;50.894;5.462;2022-10-16T11:26:24;0.20;;;0.20;;
14400;SDS011;7285;50.894;5.462;2022-10-16T11:28:54;0.20;;;0.20;;
14400;SDS011;7285;50.894;5.462;2022-10-16T11:31:26;0.20;;;0.20;;
14400;SDS011;7285;50.894;5.462;2022-10-16T11:33:59;0.20;;;0.20;;
14400;SDS011;7285;50.894;5.462;2022-10-16T11:36:32;0.17;;;0.17;;
14400;SDS011;7285;50.894;5.462;2022-10-16T11:39:04;0.20;;;0.20;;
14400;SDS011;7285;50.894;5.462;2022-10-16T11:41:44;0.17;;;0.17;;
14400;SDS011;7285;50.894;5.462;2022-10-16T11:44:30;0.10;;;0.10;;
14400;SDS011;7285;50.894;5.462;2022-10-16T11:47:06;0.10;;;0.10;;
14400;SDS011;7285;50.894;5.462;2022-10-16T11:49:41;0.10;;;0.10;;
14400;SDS011;7285;50.894;5.462;2022-10-16T11:52:12;0.20;;;0.20;;
14400;SDS011;7285;50.894;5.462;2022-10-16T11:54:45;0.20;;;0.20;;
14400;SDS011;7285;50.894;5.462;2022-10-16T11:57:17;0.17;;;0.17;;
14400;SDS011;7285;50.894;5.462;2022-10-16T11:59:47;0.10;;;0.10;;
14400;SDS011;7285;50.894;5.462;2022-10-16T12:02:40;0.10;;;0.10;;
14400;SDS011;7285;50.894;5.462;2022-10-16T12:05:23;0.10;;;0.10;;
14400;SDS011;7285;50.894;5.462;2022-10-16T12:08:00;0.20;;;0.20;;
14400;SDS011;7285;50.894;5.462;2022-10-16T12:10:33;0.10;;;0.10;;
14400;SDS011;7285;50.894;5.462;2022-10-16T12:13:02;0.20;;;0.20;;
14400;SDS011;7285;50.894;5.462;2022-10-16T12:15:30;0.10;;;0.10;;
14400;SDS011;7285;50.894;5.462;2022-10-16T12:18:00;0.10;;;0.10;;
14400;SDS011;7285;50.894;5.462;2022-10-16T12:20:28;0.10;;;0.10;;
14400;SDS011;7285;50.894;5.462;2022-10-16T12:22:58;0.20;;;0.20;;
14400;SDS011;7285;50.894;5.462;2022-10-16T12:25:28;0.20;;;0.20;;
14400;SDS011;7285;50.894;5.462;2022-10-16T12:27:58;0.17;;;0.17;;
14400;SDS011;7285;50.894;5.462;2022-10-16T12:30:28;0.20;;;0.20;;
14400;SDS011;7285;50.894;5.462;2022-10-16T12:32:57;0.20;;;0.20;;
14400;SDS011;7285;50.894;5.462;2022-10-16T12:35:28;0.10;;;0.10;;
14400;SDS011;7285;50.894;5.462;2022-10-16T12:38:05;0.20;;;0.20;;
14400;SDS011;7285;50.894;5.462;2022-10-16T12:40:34;0.10;;;0.10;;
14400;SDS011;7285;50.894;5.462;2022-10-16T12:46:01;0.13;;;0.13;;
14400;SDS011;7285;50.894;5.462;2022-10-16T12:48:31;0.10;;;0.10;;
14400;SDS011;7285;50.894;5.462;2022-10-16T12:51:09;0.10;;;0.10;;
14400;SDS011;7285;50.894;5.462;2022-10-16T12:53:36;0.17;;;0.17;;
14400;SDS011;7285;50.894;5.462;2022-10-16T12:56:04;0.10;;;0.10;;
14400;SDS011;7285;50.894;5.462;2022-10-16T12:58:52;0.10;;;0.10;;
14400;SDS011;7285;50.894;5.462;2022-10-16T13:01:40;0.10;;;0.10;;
14400;SDS011;7285;50.894;5.462;2022-10-16T13:04:23;0.10;;;0.10;;
14400;SDS011;7285;50.894;5.462;2022-10-16T13:07:06;0.10;;;0.10;;
14400;SDS011;7285;50.894;5.462;2022-10-16T13:09:49;0.10;;;0.10;;
14400;SDS011;7285;50.894;5.462;2022-10-16T13:12:37;0.20;;;0.20;;
14400;SDS011;7285;50.894;5.462;2022-10-16T13:15:26;0.30;;;0.30;;
14400;SDS011;7285;50.894;5.462;2022-10-16T13:18:10;0.20;;;0.20;;
14400;SDS011;7285;50.894;5.462;2022-10-16T13:20:50;0.20;;;0.20;;
14400;SDS011;7285;50.894;5.462;2022-10-16T13:23:38;0.20;;;0.20;;
14400;SDS011;7285;50.894;5.462;2022-10-16T13:26:17;0.20;;;0.20;;
14400;SDS011;7285;50.894;5.462;2022-10-16T13:28:49;0.20;;;0.20;;
14400;SDS011;7285;50.894;5.462;2022-10-16T13:31:17;0.23;;;0.23;;
14400;SDS011;7285;50.894;5.462;2022-10-16T13:33:48;0.20;;;0.20;;
14400;SDS011;7285;50.894;5.462;2022-10-16T13:36:22;0.20;;;0.20;;
14400;SDS011;7285;50.894;5.462;2022-10-16T13:38:59;0.30;;;0.30;;
14400;SDS011;7285;50.894;5.462;2022-10-16T13:41:32;0.20;;;0.20;;
14400;SDS011;7285;50.894;5.462;2022-10-16T13:43:59;0.20;;;0.20;;
14400;SDS011;7285;50.894;5.462;2022-10-16T13:46:26;0.20;;;0.20;;
14400;SDS011;7285;50.894;5.462;2022-10-16T13:48:58;0.20;;;0.20;;
14400;SDS011;7285;50.894;5.462;2022-10-16T13:51:28;0.30;;;0.30;;
14400;SDS011;7285;50.894;5.462;2022-10-16T13:53:55;0.20;;;0.20;;
14400;SDS011;7285;50.894;5.462;2022-10-16T13:56:24;0.30;;;0.30;;
14400;SDS011;7285;50.894;5.462;2022-10-16T13:59:00;0.23;;;0.23;;
14400;SDS011;7285;50.894;5.462;2022-10-16T14:01:28;0.20;;;0.20;;
14400;SDS011;7285;50.894;5.462;2022-10-16T14:04:00;0.20;;;0.20;;
14400;SDS011;7285;50.894;5.462;2022-10-16T14:06:31;0.20;;;0.20;;
14400;SDS011;7285;50.894;5.462;2022-10-16T14:08:59;0.30;;;0.30;;
14400;SDS011;7285;50.894;5.462;2022-10-16T14:11:30;0.20;;;0.20;;
14400;SDS011;7285;50.894;5.462;2022-10-16T14:13:58;0.20;;;0.20;;
14400;SDS011;7285;50.894;5.462;2022-10-16T14:16:27;0.20;;;0.20;;
14400;SDS011;7285;50.894;5.462;2022-10-16T14:18:57;0.20;;;0.20;;
14400;SDS011;7285;50.894;5.462;2022-10-16T14:21:26;0.30;;;0.30;;
14400;SDS011;7285;50.894;5.462;2022-10-16T14:23:55;0.20;;;0.20;;
14400;SDS011;7285;50.894;5.462;2022-10-16T14:26:23;0.20;;;0.20;;
14400;SDS011;7285;50.894;5.462;2022-10-16T14:29:04;0.23;;;0.23;;
14400;SDS011;7285;50.894;5.462;2022-10-16T14:31:37;0.30;;;0.30;;
14400;SDS011;7285;50.894;5.462;2022-10-16T14:34:05;0.40;;;0.40;;
14400;SDS011;7285;50.894;5.462;2022-10-16T14:36:52;0.30;;;0.30;;
14400;SDS011;7285;50.894;5.462;2022-10-16T14:39:21;0.27;;;0.27;;
14400;SDS011;7285;50.894;5.462;2022-10-16T14:41:50;0.30;;;0.30;;
14400;SDS011;7285;50.894;5.462;2022-10-16T14:44:18;0.30;;;0.30;;
14400;SDS011;7285;50.894;5.462;2022-10-16T14:46:47;0.20;;;0.20;;
14400;SDS011;7285;50.894;5.462;2022-10-16T14:49:15;0.30;;;0.30;;
14400;SDS011;7285;50.894;5.462;2022-10-16T14:51:45;0.30;;;0.30;;
14400;SDS011;7285;50.894;5.462;2022-10-16T14:54:13;0.30;;;0.30;;
14400;SDS011;7285;50.894;5.462;2022-10-16T14:56:52;0.30;;;0.30;;
14400;SDS011;7285;50.894;5.462;2022-10-16T14:59:23;0.30;;;0.30;;
14400;SDS011;7285;50.894;5.462;2022-10-16T15:01:53;0.30;;;0.30;;
14400;SDS011;7285;50.894;5.462;2022-10-16T15:04:20;0.40;;;0.40;;
14400;SDS011;7285;50.894;5.462;2022-10-16T15:06:47;0.30;;;0.30;;
14400;SDS011;7285;50.894;5.462;2022-10-16T15:09:14;0.40;;;0.40;;
14400;SDS011;7285;50.894;5.462;2022-10-16T15:11:41;0.30;;;0.30;;
14400;SDS011;7285;50.894;5.462;2022-10-16T15:14:10;0.27;;;0.27;;
14400;SDS011;7285;50.894;5.462;2022-10-16T15:16:38;0.27;;;0.27;;
14400;SDS011;7285;50.894;5.462;2022-10-16T15:19:05;0.30;;;0.30;;
14400;SDS011;7285;50.894;5.462;2022-10-16T15:21:32;0.33;;;0.33;;
14400;SDS011;7285;50.894;5.462;2022-10-16T15:23:59;0.30;;;0.30;;
14400;SDS011;7285;50.894;5.462;2022-10-16T15:26:27;0.20;;;0.20;;
14400;SDS011;7285;50.894;5.462;2022-10-16T15:28:55;0.30;;;0.30;;
14400;SDS011;7285;50.894;5.462;2022-10-16T15:31:24;0.47;;;0.47;;
14400;SDS011;7285;50.894;5.462;2022-10-16T15:33:51;0.40;;;0.40;;
14400;SDS011;7285;50.894;5.462;2022-10-16T15:36:26;0.40;;;0.40;;
14400;SDS011;7285;50.894;5.462;2022-10-16T15:38:53;0.30;;;0.30;;
14400;SDS011;7285;50.894;5.462;2022-10-16T15:41:20;0.30;;;0.30;;
14400;SDS011;7285;50.894;5.462;2022-10-16T15:43:48;0.30;;;0.30;;
14400;SDS011;7285;50.894;5.462;2022-10-16T15:46:17;0.30;;;0.30;;
14400;SDS011;7285;50.894;5.462;2022-10-16T15:48:47;0.40;;;0.40;;
14400;SDS011;7285;50.894;5.462;2022-10-16T15:51:14;0.40;;;0.40;;
14400;SDS011;7285;50.894;5.462;2022-10-16T15:53:41;0.30;;;0.30;;
14400;SDS011;7285;50.894;5.462;2022-10-16T15:56:11;0.30;;;0.30;;
14400;SDS011;7285;50.894;5.462;2022-10-16T15:58:39;0.30;;;0.30;;
14400;SDS011;7285;50.894;5.462;2022-10-16T16:01:06;0.40;;;0.40;;
14400;SDS011;7285;50.894;5.462;2022-10-16T16:03:35;0.30;;;0.30;;
14400;SDS011;7285;50.894;5.462;2022-10-16T16:06:06;0.30;;;0.30;;
14400;SDS011;7285;50.894;5.462;2022-10-16T16:08:34;0.30;;;0.30;;
14400;SDS011;7285;50.894;5.462;2022-10-16T16:11:02;0.30;;;0.30;;